Search for airport 
image banner adimage banner adimage banner ad
image banner ad

6CA2 - Sce Rosemead

Located in Rosemead, United States

ICAO - 6CA2, IATA -

Data provided by Airmate  

General information

Coordinates: N34°3'0" W118°4'52"
Elevation is 229 feet MSL.
Magnetic variation is 14° East
View others Airports in California

Operational data

Special qualification required
Current time UTC:
Current local time:
Weather at : KEMT - San Gabriel Valley ( 6 km )
METAR: KEMT 212247Z 23007KT 210V270 10SM CLR 37/10 A3000 RMK RY01 PAPI OTS
View NOTAMs / SUP AIP / TFR affecting this airport [VIEW]
Communications frequencies: [VIEW]

Runways:

Airport contact information

Address: Rosemead United States

Satellite view of 6CA2